createdAt,value
2023-04-25T00:00:31.865Z,94382.00
2023-04-25T00:01:31.774Z,94380.00
2023-04-25T00:02:31.870Z,94380.00
2023-04-25T00:03:31.912Z,94378.00
2023-04-25T00:04:31.977Z,94370.00
2023-04-25T00:05:31.956Z,94370.00
2023-04-25T00:06:31.771Z,94368.00
2023-04-25T00:07:31.757Z,94368.00
2023-04-25T00:08:31.755Z,94370.00
2023-04-25T00:09:31.757Z,94370.00
2023-04-25T00:10:31.892Z,94370.00
2023-04-25T00:11:31.724Z,94378.00
2023-04-25T00:12:31.737Z,94370.00
2023-04-25T00:13:31.744Z,94378.00
2023-04-25T00:14:31.702Z,94380.00
2023-04-25T00:15:31.940Z,94378.00
2023-04-25T00:16:31.850Z,94378.00
2023-04-25T00:17:31.681Z,94370.00
2023-04-25T00:18:31.671Z,94370.00
2023-04-25T00:19:31.670Z,94368.00
2023-04-25T00:20:31.940Z,94364.00
2023-04-25T00:21:31.687Z,94366.00
2023-04-25T00:22:31.637Z,94366.00
2023-04-25T00:23:31.645Z,94364.00
2023-04-25T00:24:31.653Z,94364.00
2023-04-25T00:25:31.921Z,94364.00
2023-04-25T00:26:31.680Z,94366.00
2023-04-25T00:27:31.694Z,94364.00
2023-04-25T00:28:31.689Z,94362.00
2023-04-25T00:29:31.668Z,94362.00
2023-04-25T00:30:31.671Z,94362.00
2023-04-25T00:31:31.719Z,94364.00
2023-04-25T00:32:31.708Z,94364.00
2023-04-25T00:33:31.670Z,94362.00
2023-04-25T00:34:31.690Z,94362.00
2023-04-25T00:35:31.886Z,94366.00
2023-04-25T00:36:31.673Z,94364.00
2023-04-25T00:37:31.673Z,94364.00
2023-04-25T00:38:31.684Z,94366.00
2023-04-25T00:39:31.693Z,94368.00
2023-04-25T00:40:31.957Z,94370.00
2023-04-25T00:41:31.708Z,94378.00
2023-04-25T00:42:31.698Z,94382.00
2023-04-25T00:43:31.719Z,94380.00
2023-04-25T00:44:31.728Z,94380.00
2023-04-25T00:45:31.897Z,94378.00
2023-04-25T00:46:31.805Z,94380.00
2023-04-25T00:47:31.787Z,94378.00
2023-04-25T00:48:31.750Z,94368.00
2023-04-25T00:49:31.736Z,94368.00
2023-04-25T00:50:31.920Z,94368.00
2023-04-25T00:51:31.751Z,94366.00
2023-04-25T00:52:31.753Z,94366.00
2023-04-25T00:53:31.730Z,94366.00
2023-04-25T00:54:31.768Z,94368.00
2023-04-25T00:55:31.910Z,94366.00
2023-04-25T00:56:31.785Z,94364.00
2023-04-25T00:57:31.785Z,94366.00
2023-04-25T00:58:31.771Z,94366.00
2023-04-25T00:59:31.810Z,94368.00
2023-04-25T01:00:31.924Z,94368.00
2023-04-25T01:01:31.809Z,94370.00
2023-04-25T01:02:31.954Z,94370.00
2023-04-25T01:03:31.981Z,94378.00
2023-04-25T01:04:31.866Z,94378.00
2023-04-25T01:05:31.946Z,94378.00
2023-04-25T01:06:31.814Z,94378.00
2023-04-25T01:07:31.855Z,94378.00
2023-04-25T01:08:31.873Z,94380.00
2023-04-25T01:09:31.833Z,94370.00
2023-04-25T01:10:31.879Z,94364.00
2023-04-25T01:11:31.881Z,94362.00
2023-04-25T01:12:31.907Z,94358.00
2023-04-25T01:13:31.893Z,94354.00
2023-04-25T01:14:31.906Z,94354.00
2023-04-25T01:15:31.914Z,94352.00
2023-04-25T01:16:31.929Z,94354.00
2023-04-25T01:17:31.959Z,94354.00
2023-04-25T01:18:31.929Z,94354.00
2023-04-25T01:19:31.944Z,94354.00
2023-04-25T01:20:31.944Z,94354.00
2023-04-25T01:21:32.470Z,94352.00
2023-04-25T01:22:31.959Z,94352.00
2023-04-25T01:23:31.971Z,94352.00
2023-04-25T01:24:31.981Z,94350.00
2023-04-25T01:25:31.964Z,94350.00
2023-04-25T01:26:32.429Z,94348.00
2023-04-25T01:27:32.003Z,94348.00
2023-04-25T01:28:31.970Z,94348.00
2023-04-25T01:29:31.977Z,94347.00
2023-04-25T01:30:31.958Z,94348.00
2023-04-25T01:31:32.468Z,94348.00
2023-04-25T01:32:32.008Z,94348.00
2023-04-25T01:33:31.982Z,94350.00
2023-04-25T01:34:32.009Z,94352.00
2023-04-25T01:35:32.006Z,94352.00
2023-04-25T01:36:32.452Z,94352.00
2023-04-25T01:37:31.988Z,94352.00
2023-04-25T01:38:31.987Z,94352.00
2023-04-25T01:39:32.032Z,94350.00
2023-04-25T01:40:32.018Z,94350.00
2023-04-25T01:41:32.457Z,94348.00
2023-04-25T01:42:32.001Z,94347.00
2023-04-25T01:43:32.044Z,94348.00
2023-04-25T01:44:32.077Z,94347.00
2023-04-25T01:45:32.020Z,94347.00
2023-04-25T01:46:32.604Z,94345.00
2023-04-25T01:47:33.099Z,94347.00
2023-04-25T01:48:32.073Z,94347.00
2023-04-25T01:49:32.049Z,94345.00
2023-04-25T01:50:32.047Z,94345.00
2023-04-25T01:51:32.467Z,94343.00
2023-04-25T01:52:32.046Z,94345.00
2023-04-25T01:53:32.104Z,94343.00
2023-04-25T01:54:32.104Z,94345.00
2023-04-25T01:55:32.096Z,94339.00
2023-04-25T01:56:32.064Z,94341.00
2023-04-25T01:57:32.110Z,94339.00
2023-04-25T01:58:32.113Z,94339.00
2023-04-25T01:59:32.117Z,94339.00
2023-04-25T02:00:32.141Z,94341.00
2023-04-25T02:01:32.191Z,94341.00
2023-04-25T02:02:32.266Z,94341.00
2023-04-25T02:03:32.320Z,94343.00
2023-04-25T02:04:32.190Z,94341.00
2023-04-25T02:05:32.157Z,94343.00
2023-04-25T02:06:32.416Z,94341.00
2023-04-25T02:07:32.167Z,94341.00
2023-04-25T02:08:32.189Z,94341.00
2023-04-25T02:09:32.179Z,94345.00
2023-04-25T02:10:32.185Z,94345.00
2023-04-25T02:11:32.425Z,94348.00
2023-04-25T02:12:32.230Z,94345.00
2023-04-25T02:13:32.214Z,94347.00
2023-04-25T02:14:32.962Z,94347.00
2023-04-25T02:15:32.281Z,94345.00
2023-04-25T02:16:32.506Z,94345.00
2023-04-25T02:17:32.247Z,94345.00
2023-04-25T02:18:32.261Z,94345.00
2023-04-25T02:19:32.258Z,94345.00
2023-04-25T02:20:32.261Z,94347.00
2023-04-25T02:21:32.450Z,94347.00
2023-04-25T02:22:32.238Z,94347.00
2023-04-25T02:23:32.302Z,94341.00
2023-04-25T02:24:32.290Z,94345.00
2023-04-25T02:25:32.301Z,94345.00
2023-04-25T02:26:32.438Z,94341.00
2023-04-25T02:27:32.313Z,94345.00
2023-04-25T02:28:32.326Z,94339.00
2023-04-25T02:29:32.340Z,94337.00
2023-04-25T02:30:32.355Z,94335.00
2023-04-25T02:31:32.446Z,94337.00
2023-04-25T02:32:32.380Z,94339.00
2023-04-25T02:33:32.361Z,94337.00
2023-04-25T02:34:32.378Z,94341.00
2023-04-25T02:35:32.369Z,94339.00
2023-04-25T02:36:32.456Z,94339.00
2023-04-25T02:37:32.394Z,94339.00
2023-04-25T02:38:32.393Z,94341.00
2023-04-25T02:39:32.403Z,94341.00
2023-04-25T02:40:32.404Z,94341.00
2023-04-25T02:41:32.469Z,94341.00
2023-04-25T02:42:32.432Z,94341.00
2023-04-25T02:43:32.421Z,94341.00
2023-04-25T02:44:32.444Z,94341.00
2023-04-25T02:45:32.476Z,94341.00
2023-04-25T02:47:33.548Z,94341.00
2023-04-25T02:48:32.456Z,94341.00
2023-04-25T02:49:32.467Z,94343.00
2023-04-25T02:50:32.461Z,94343.00
2023-04-25T02:51:32.456Z,94343.00
2023-04-25T02:52:32.440Z,94339.00
2023-04-25T02:53:32.526Z,94343.00
2023-04-25T02:54:32.465Z,94343.00
2023-04-25T02:55:32.483Z,94341.00
2023-04-25T02:56:32.978Z,94343.00
2023-04-25T02:57:32.522Z,94341.00
2023-04-25T02:58:32.493Z,94343.00
2023-04-25T02:59:32.501Z,94343.00
2023-04-25T03:00:32.598Z,94347.00
2023-04-25T03:01:32.949Z,94347.00
2023-04-25T03:02:32.621Z,94345.00
2023-04-25T03:03:32.628Z,94343.00
2023-04-25T03:04:32.589Z,94341.00
2023-04-25T03:05:32.575Z,94341.00
2023-04-25T03:06:32.980Z,94343.00
2023-04-25T03:07:32.594Z,94341.00
2023-04-25T03:08:32.609Z,94341.00
2023-04-25T03:09:32.604Z,94341.00
2023-04-25T03:10:32.583Z,94343.00
2023-04-25T03:11:32.965Z,94339.00
2023-04-25T03:12:32.605Z,94341.00
2023-04-25T03:13:32.610Z,94341.00
2023-04-25T03:14:32.609Z,94337.00
2023-04-25T03:15:32.597Z,94337.00
2023-04-25T03:16:33.010Z,94337.00
2023-04-25T03:17:32.653Z,94339.00
2023-04-25T03:18:32.623Z,94337.00
2023-04-25T03:19:32.675Z,94337.00
2023-04-25T03:20:32.666Z,94339.00
2023-04-25T03:21:32.980Z,94337.00
2023-04-25T03:22:32.674Z,94335.00
2023-04-25T03:23:32.675Z,94335.00
2023-04-25T03:24:32.673Z,94333.00
2023-04-25T03:25:32.725Z,94335.00
2023-04-25T03:26:32.982Z,94333.00
2023-04-25T03:27:32.657Z,94333.00
2023-04-25T03:28:32.689Z,94333.00
2023-04-25T03:29:32.717Z,94335.00
2023-04-25T03:30:32.727Z,94335.00
2023-04-25T03:31:32.992Z,94333.00
2023-04-25T03:32:32.762Z,94335.00
2023-04-25T03:33:32.738Z,94335.00
2023-04-25T03:34:32.735Z,94335.00
2023-04-25T03:35:32.767Z,94333.00
2023-04-25T03:36:32.951Z,94331.00
2023-04-25T03:37:32.778Z,94327.00
2023-04-25T03:38:32.815Z,94329.00
2023-04-25T03:39:32.816Z,94329.00
2023-04-25T03:40:32.820Z,94329.00
2023-04-25T03:41:32.825Z,94331.00
2023-04-25T03:42:32.846Z,94333.00
2023-04-25T03:43:32.876Z,94333.00
2023-04-25T03:44:32.853Z,94335.00
2023-04-25T03:45:32.905Z,94333.00
2023-04-25T03:46:32.955Z,94331.00
2023-04-25T03:47:32.973Z,94331.00
2023-04-25T03:48:32.880Z,94325.00
2023-04-25T03:49:32.899Z,94323.00
2023-04-25T03:50:32.910Z,94325.00
2023-04-25T03:51:32.895Z,94325.00
2023-04-25T03:52:32.959Z,94327.00
2023-04-25T03:53:32.949Z,94329.00
2023-04-25T03:54:32.974Z,94327.00
2023-04-25T03:55:32.968Z,94327.00
2023-04-25T03:56:32.981Z,94329.00
2023-04-25T03:57:32.987Z,94325.00
2023-04-25T03:58:32.980Z,94325.00
2023-04-25T03:59:33.008Z,94327.00
2023-04-25T04:00:33.063Z,94325.00
2023-04-25T04:01:33.004Z,94325.00
2023-04-25T04:02:33.604Z,94329.00
2023-04-25T04:03:33.238Z,94327.00
2023-04-25T04:04:33.402Z,94325.00
2023-04-25T04:05:33.102Z,94325.00
2023-04-25T04:06:33.047Z,94327.00
2023-04-25T04:07:33.057Z,94325.00
2023-04-25T04:08:33.078Z,94327.00
2023-04-25T04:09:33.066Z,94325.00
2023-04-25T04:10:33.085Z,94323.00
2023-04-25T04:11:33.062Z,94321.00
2023-04-25T04:12:33.501Z,94321.00
2023-04-25T04:13:33.107Z,94321.00
2023-04-25T04:14:33.122Z,94321.00
2023-04-25T04:15:33.180Z,94323.00
2023-04-25T04:16:34.536Z,94323.00
2023-04-25T04:17:33.192Z,94323.00
2023-04-25T04:18:33.160Z,94323.00
2023-04-25T04:19:33.179Z,94323.00
2023-04-25T04:20:33.209Z,94325.00
2023-04-25T04:21:33.202Z,94325.00
2023-04-25T04:22:33.185Z,94325.00
2023-04-25T04:23:33.192Z,94325.00
2023-04-25T04:24:33.239Z,94327.00
2023-04-25T04:25:33.270Z,94327.00
2023-04-25T04:26:33.240Z,94329.00
2023-04-25T04:27:33.268Z,94331.00
2023-04-25T04:28:33.270Z,94331.00
2023-04-25T04:29:33.263Z,94325.00
2023-04-25T04:30:33.268Z,94327.00
2023-04-25T04:31:33.344Z,94327.00
2023-04-25T04:32:33.346Z,94323.00
2023-04-25T04:33:33.360Z,94325.00
2023-04-25T04:34:33.376Z,94321.00
2023-04-25T04:35:33.388Z,94321.00
2023-04-25T04:36:33.373Z,94321.00
2023-04-25T04:37:33.525Z,94319.00
2023-04-25T04:38:33.404Z,94319.00
2023-04-25T04:39:33.445Z,94319.00
2023-04-25T04:40:33.446Z,94319.00
2023-04-25T04:41:33.475Z,94321.00
2023-04-25T04:42:33.473Z,94321.00
2023-04-25T04:43:33.495Z,94325.00
2023-04-25T04:44:33.522Z,94323.00
2023-04-25T04:45:33.508Z,94323.00
2023-04-25T04:46:33.566Z,94323.00
2023-04-25T04:47:34.033Z,94323.00
2023-04-25T04:48:33.597Z,94325.00
2023-04-25T04:49:33.564Z,94323.00
2023-04-25T04:50:33.570Z,94325.00
2023-04-25T04:51:33.567Z,94323.00
2023-04-25T04:52:34.003Z,94323.00
2023-04-25T04:53:33.646Z,94321.00
2023-04-25T04:54:33.660Z,94319.00
2023-04-25T04:55:33.630Z,94319.00
2023-04-25T04:56:33.656Z,94319.00
2023-04-25T04:57:34.057Z,94317.00
2023-04-25T04:58:33.683Z,94317.00
2023-04-25T04:59:33.739Z,94315.00
2023-04-25T05:00:33.760Z,94315.00
2023-04-25T05:01:33.733Z,94315.00
2023-04-25T05:02:34.088Z,94315.00
2023-04-25T05:03:33.905Z,94315.00
2023-04-25T05:04:33.884Z,94317.00
2023-04-25T05:05:33.785Z,94317.00
2023-04-25T05:06:33.809Z,94317.00
2023-04-25T05:07:34.013Z,94317.00
2023-04-25T05:08:33.854Z,94317.00
2023-04-25T05:09:33.858Z,94317.00
2023-04-25T05:10:33.855Z,94315.00
2023-04-25T05:11:33.876Z,94315.00
2023-04-25T05:12:34.706Z,94313.00
2023-04-25T05:13:33.908Z,94311.00
2023-04-25T05:14:33.949Z,94309.00
2023-04-25T05:15:33.986Z,94311.00
2023-04-25T05:16:34.031Z,94307.00
2023-04-25T05:17:34.072Z,94309.00
2023-04-25T05:18:34.568Z,94309.00
2023-04-25T05:19:34.027Z,94311.00
2023-04-25T05:20:34.050Z,94311.00
2023-04-25T05:21:34.052Z,94313.00
2023-04-25T05:22:34.527Z,94315.00
2023-04-25T05:23:34.085Z,94315.00
2023-04-25T05:24:34.100Z,94317.00
2023-04-25T05:25:34.199Z,94315.00
2023-04-25T05:26:34.146Z,94317.00
2023-04-25T05:27:34.553Z,94317.00
2023-04-25T05:28:34.245Z,94315.00
2023-04-25T05:29:34.200Z,94315.00
2023-04-25T05:30:34.208Z,94313.00
2023-04-25T05:31:34.284Z,94311.00
2023-04-25T05:32:34.538Z,94313.00
2023-04-25T05:33:34.261Z,94313.00
2023-04-25T05:34:34.290Z,94313.00
2023-04-25T05:35:34.360Z,94315.00
2023-04-25T05:36:34.309Z,94309.00
2023-04-25T05:37:34.510Z,94309.00
2023-04-25T05:38:35.108Z,94305.00
2023-04-25T05:39:34.383Z,94305.00
2023-04-25T05:40:34.387Z,94301.00
2023-04-25T05:41:34.435Z,94301.00
2023-04-25T05:42:34.520Z,94301.00
2023-04-25T05:43:34.429Z,94301.00
2023-04-25T05:44:34.454Z,94303.00
2023-04-25T05:45:34.547Z,94303.00
2023-04-25T05:46:34.598Z,94303.00
2023-04-25T05:47:34.586Z,94305.00
2023-04-25T05:48:34.502Z,94303.00
2023-04-25T05:49:34.552Z,94301.00
2023-04-25T05:50:34.540Z,94301.00
2023-04-25T05:51:34.620Z,94301.00
2023-04-25T05:52:34.607Z,94303.00
2023-04-25T05:53:34.613Z,94301.00
2023-04-25T05:54:34.610Z,94305.00
2023-04-25T05:55:34.620Z,94307.00
2023-04-25T05:56:34.661Z,94305.00
2023-04-25T05:57:35.012Z,94303.00
2023-04-25T05:58:34.653Z,94300.00
2023-04-25T05:59:34.693Z,94292.00
2023-04-25T06:00:35.274Z,94284.00
2023-04-25T06:01:34.726Z,94278.00
2023-04-25T06:02:35.195Z,94274.00
2023-04-25T06:03:34.893Z,94272.00
2023-04-25T06:04:35.187Z,94268.00
2023-04-25T06:05:34.861Z,94266.00
2023-04-25T06:06:34.799Z,94266.00
2023-04-25T06:07:34.834Z,94268.00
2023-04-25T06:08:34.807Z,94270.00
2023-04-25T06:09:34.817Z,94272.00
2023-04-25T06:10:34.812Z,94272.00
2023-04-25T06:11:34.835Z,94270.00
2023-04-25T06:12:35.046Z,94268.00
2023-04-25T06:13:34.838Z,94270.00
2023-04-25T06:14:34.851Z,94266.00
2023-04-25T06:15:34.953Z,94266.00
2023-04-25T06:16:34.973Z,94266.00
2023-04-25T06:17:34.925Z,94266.00
2023-04-25T06:18:34.882Z,94266.00
2023-04-25T06:19:34.859Z,94272.00
2023-04-25T06:20:34.853Z,94270.00
2023-04-25T06:21:34.883Z,94270.00
2023-04-25T06:22:34.871Z,94270.00
2023-04-25T06:23:34.877Z,94268.00
2023-04-25T06:24:34.862Z,94270.00
2023-04-25T06:25:34.930Z,94270.00
2023-04-25T06:26:34.859Z,94270.00
2023-04-25T06:27:35.092Z,94266.00
2023-04-25T06:28:34.874Z,94264.00
2023-04-25T06:29:34.890Z,94266.00
2023-04-25T06:30:34.857Z,94264.00
2023-04-25T06:31:34.940Z,94262.00
2023-04-25T06:32:34.891Z,94256.00
2023-04-25T06:33:34.858Z,94256.00
2023-04-25T06:34:34.900Z,94253.00
2023-04-25T06:35:34.874Z,94254.00
2023-04-25T06:36:34.867Z,94254.00
2023-04-25T06:37:34.873Z,94253.00
2023-04-25T06:38:34.883Z,94254.00
2023-04-25T06:39:34.864Z,94253.00
2023-04-25T06:40:34.851Z,94254.00
2023-04-25T06:41:34.883Z,94254.00
2023-04-25T06:42:35.051Z,94254.00
2023-04-25T06:43:34.881Z,94254.00
2023-04-25T06:44:34.896Z,94256.00
2023-04-25T06:45:34.868Z,94256.00
2023-04-25T06:46:34.889Z,94258.00
2023-04-25T06:47:35.096Z,94258.00
2023-04-25T06:48:34.938Z,94254.00
2023-04-25T06:49:34.822Z,94254.00
2023-04-25T06:50:34.887Z,94254.00
2023-04-25T06:51:34.871Z,94258.00
2023-04-25T06:52:35.139Z,94256.00
2023-04-25T06:53:34.982Z,94254.00
2023-04-25T06:54:34.866Z,94253.00
2023-04-25T06:55:34.864Z,94249.00
2023-04-25T06:56:34.863Z,94245.00
2023-04-25T06:57:34.860Z,94247.00
2023-04-25T06:58:34.887Z,94245.00
2023-04-25T06:59:34.858Z,94245.00
2023-04-25T07:00:34.933Z,94243.00
2023-04-25T07:01:34.850Z,94245.00
2023-04-25T07:02:34.889Z,94239.00
2023-04-25T07:03:35.257Z,94239.00
2023-04-25T07:04:35.072Z,94235.00
2023-04-25T07:05:34.872Z,94233.00
2023-04-25T07:06:34.851Z,94233.00
2023-04-25T07:07:34.825Z,94233.00
2023-04-25T07:08:34.830Z,94233.00
2023-04-25T07:09:34.897Z,94235.00
2023-04-25T07:10:34.820Z,94231.00
2023-04-25T07:11:34.813Z,94231.00
2023-04-25T07:12:34.831Z,94231.00
2023-04-25T07:13:34.822Z,94229.00
2023-04-25T07:14:34.864Z,94231.00
2023-04-25T07:15:34.852Z,94229.00
2023-04-25T07:16:34.917Z,94231.00
2023-04-25T07:17:34.866Z,94231.00
2023-04-25T07:18:34.859Z,94233.00
2023-04-25T07:19:34.846Z,94233.00
2023-04-25T07:20:34.826Z,94235.00
2023-04-25T07:21:34.807Z,94237.00
2023-04-25T07:22:34.793Z,94239.00
2023-04-25T07:23:35.091Z,94243.00
2023-04-25T07:24:34.808Z,94237.00
2023-04-25T07:25:34.792Z,94239.00
2023-04-25T07:26:34.822Z,94241.00
2023-04-25T07:27:34.799Z,94235.00
2023-04-25T07:28:35.070Z,94239.00
2023-04-25T07:29:34.771Z,94237.00
2023-04-25T07:30:34.765Z,94235.00
2023-04-25T07:31:34.923Z,94233.00
2023-04-25T07:32:34.828Z,94235.00
2023-04-25T07:33:35.067Z,94237.00
2023-04-25T07:34:34.801Z,94237.00
2023-04-25T07:35:34.829Z,94239.00
2023-04-25T07:36:34.824Z,94237.00
2023-04-25T07:37:34.816Z,94239.00
2023-04-25T07:38:34.830Z,94237.00
2023-04-25T07:39:34.829Z,94239.00
2023-04-25T07:40:34.844Z,94241.00
2023-04-25T07:41:34.853Z,94243.00
2023-04-25T07:42:34.881Z,94245.00
2023-04-25T07:43:35.195Z,94245.00
2023-04-25T07:44:34.827Z,94241.00
2023-04-25T07:45:34.991Z,94241.00
2023-04-25T07:46:34.922Z,94237.00
2023-04-25T07:47:34.933Z,94239.00
2023-04-25T07:48:35.084Z,94237.00
2023-04-25T07:49:34.839Z,94239.00
2023-04-25T07:50:34.880Z,94239.00
2023-04-25T07:51:34.916Z,94239.00
2023-04-25T07:52:35.002Z,94241.00
2023-04-25T07:53:35.114Z,94245.00
2023-04-25T07:54:35.128Z,94239.00
2023-04-25T07:55:35.151Z,94243.00
2023-04-25T07:56:49.234Z,94245.00
2023-04-25T07:57:36.213Z,94243.00
2023-04-25T07:58:35.603Z,94243.00
2023-04-25T07:59:35.181Z,94243.00
2023-04-25T08:00:35.242Z,94239.00
2023-04-25T08:01:35.196Z,94243.00
2023-04-25T08:02:35.258Z,94241.00
2023-04-25T08:03:35.739Z,94239.00
2023-04-25T08:04:35.273Z,94239.00
2023-04-25T08:05:35.188Z,94237.00
2023-04-25T08:06:35.562Z,94235.00
2023-04-25T08:07:35.129Z,94237.00
2023-04-25T08:08:35.568Z,94237.00
2023-04-25T08:09:35.117Z,94239.00
2023-04-25T08:10:35.135Z,94241.00
2023-04-25T08:11:35.111Z,94241.00
2023-04-25T08:12:35.175Z,94241.00
2023-04-25T08:13:35.120Z,94239.00
2023-04-25T08:14:35.083Z,94243.00
2023-04-25T08:15:35.074Z,94239.00
2023-04-25T08:16:35.116Z,94241.00
2023-04-25T08:17:35.112Z,94241.00
2023-04-25T08:18:35.613Z,94243.00
2023-04-25T08:19:35.160Z,94243.00
2023-04-25T08:20:35.201Z,94243.00
2023-04-25T08:21:35.267Z,94245.00
2023-04-25T08:22:35.320Z,94245.00
2023-04-25T08:23:35.581Z,94247.00
2023-04-25T08:24:37.229Z,94245.00
2023-04-25T08:25:35.430Z,94245.00
2023-04-25T08:26:35.463Z,94243.00
2023-04-25T08:27:35.405Z,94247.00
2023-04-25T08:28:35.572Z,94245.00
2023-04-25T08:29:35.424Z,94241.00
2023-04-25T08:30:35.420Z,94237.00
2023-04-25T08:31:35.431Z,94237.00
2023-04-25T08:32:35.502Z,94237.00
2023-04-25T08:33:35.595Z,94231.00
2023-04-25T08:34:35.389Z,94233.00
2023-04-25T08:35:35.423Z,94235.00
2023-04-25T08:36:39.871Z,94233.00
2023-04-25T08:37:35.349Z,94231.00
2023-04-25T08:38:35.622Z,94231.00
2023-04-25T08:39:35.390Z,94229.00
2023-04-25T08:40:35.425Z,94231.00
2023-04-25T08:41:35.339Z,94233.00
2023-04-25T08:42:35.351Z,94239.00
2023-04-25T08:43:35.577Z,94237.00
2023-04-25T08:44:35.299Z,94241.00
2023-04-25T08:45:35.336Z,94239.00
2023-04-25T08:46:35.349Z,94241.00
2023-04-25T08:47:35.321Z,94241.00
2023-04-25T08:48:35.726Z,94239.00
2023-04-25T08:49:35.292Z,94235.00
2023-04-25T08:50:35.287Z,94235.00
2023-04-25T08:51:35.263Z,94233.00
2023-04-25T08:52:35.287Z,94235.00
2023-04-25T08:53:36.282Z,94233.00
2023-04-25T08:54:37.203Z,94231.00
2023-04-25T08:55:35.297Z,94229.00
2023-04-25T08:56:35.243Z,94229.00
2023-04-25T08:57:35.234Z,94227.00
2023-04-25T08:58:35.299Z,94229.00
2023-04-25T08:59:36.208Z,94229.00
2023-04-25T09:00:35.419Z,94227.00
2023-04-25T09:01:35.526Z,94229.00
2023-04-25T09:02:35.610Z,94227.00
2023-04-25T09:03:35.856Z,94223.00
2023-04-25T09:04:35.709Z,94223.00
2023-04-25T09:05:35.741Z,94223.00
2023-04-25T09:06:35.674Z,94223.00
2023-04-25T09:07:35.763Z,94225.00
2023-04-25T09:08:36.103Z,94225.00
2023-04-25T09:09:35.892Z,94223.00
2023-04-25T09:10:36.006Z,94229.00
2023-04-25T09:11:35.958Z,94225.00
2023-04-25T09:12:36.027Z,94225.00
2023-04-25T09:13:36.108Z,94225.00
2023-04-25T09:14:36.198Z,94221.00
2023-04-25T09:15:36.263Z,94223.00
2023-04-25T09:16:39.527Z,94223.00
2023-04-25T09:17:36.457Z,94225.00
2023-04-25T09:18:36.265Z,94227.00
2023-04-25T09:20:40.420Z,94229.00
2023-04-25T09:21:37.279Z,94229.00
2023-04-25T09:22:36.223Z,94227.00
2023-04-25T09:23:36.228Z,94227.00
2023-04-25T09:24:36.598Z,94227.00
2023-04-25T09:25:36.202Z,94225.00
2023-04-25T09:26:36.219Z,94225.00
2023-04-25T09:27:36.167Z,94227.00
2023-04-25T09:28:36.248Z,94227.00
2023-04-25T09:29:36.181Z,94227.00
2023-04-25T09:30:36.202Z,94233.00
2023-04-25T09:31:36.242Z,94231.00
2023-04-25T09:32:36.262Z,94237.00
2023-04-25T09:33:36.151Z,94239.00
2023-04-25T09:34:36.170Z,94239.00
2023-04-25T09:35:36.166Z,94239.00
2023-04-25T09:36:36.200Z,94241.00
2023-04-25T09:37:36.104Z,94239.00
2023-04-25T09:38:36.166Z,94237.00
2023-04-25T09:39:36.633Z,94239.00
2023-04-25T09:40:36.126Z,94237.00
2023-04-25T09:41:36.120Z,94235.00
2023-04-25T09:42:36.116Z,94235.00
2023-04-25T09:43:36.126Z,94233.00
2023-04-25T09:44:36.198Z,94233.00
2023-04-25T09:45:36.111Z,94229.00
2023-04-25T09:46:36.197Z,94231.00
2023-04-25T09:47:36.186Z,94235.00
2023-04-25T09:48:36.219Z,94235.00
2023-04-25T09:49:36.606Z,94237.00
2023-04-25T09:50:36.294Z,94235.00
2023-04-25T09:51:36.290Z,94235.00
2023-04-25T09:52:36.401Z,94237.00
2023-04-25T09:53:36.427Z,94235.00
2023-04-25T09:54:36.625Z,94239.00
2023-04-25T09:55:36.545Z,94239.00
2023-04-25T09:56:36.568Z,94235.00
2023-04-25T09:57:36.623Z,94235.00
2023-04-25T09:58:36.656Z,94237.00
2023-04-25T09:59:37.150Z,94241.00
2023-04-25T10:00:36.718Z,94239.00
2023-04-25T10:01:36.790Z,94237.00
2023-04-25T10:02:37.771Z,94241.00
2023-04-25T10:03:36.985Z,94239.00
2023-04-25T10:04:37.161Z,94241.00
2023-04-25T10:05:36.917Z,94239.00
2023-04-25T10:06:36.958Z,94237.00
2023-04-25T10:07:37.006Z,94239.00
2023-04-25T10:08:37.045Z,94237.00
2023-04-25T10:09:37.074Z,94239.00
2023-04-25T10:10:37.109Z,94239.00
2023-04-25T10:11:37.166Z,94239.00
2023-04-25T10:12:37.218Z,94239.00
2023-04-25T10:13:37.242Z,94235.00
2023-04-25T10:14:37.290Z,94237.00
2023-04-25T10:15:39.714Z,94233.00
2023-04-25T10:16:37.297Z,94231.00
2023-04-25T10:17:37.380Z,94229.00
2023-04-25T10:18:37.277Z,94231.00
2023-04-25T10:19:37.296Z,94231.00
2023-04-25T10:20:37.270Z,94225.00
2023-04-25T10:21:37.242Z,94223.00
2023-04-25T10:22:37.271Z,94223.00
2023-04-25T10:23:37.259Z,94219.00
2023-04-25T10:24:37.271Z,94221.00
2023-04-25T10:25:37.214Z,94219.00
2023-04-25T10:26:37.257Z,94217.00
2023-04-25T10:27:37.243Z,94217.00
2023-04-25T10:28:37.242Z,94213.00
2023-04-25T10:29:37.226Z,94211.00
2023-04-25T10:30:37.269Z,94211.00
2023-04-25T10:31:37.356Z,94209.00
2023-04-25T10:32:37.231Z,94205.00
2023-04-25T10:33:37.172Z,94201.00
2023-04-25T10:34:37.641Z,94201.00
2023-04-25T10:35:37.162Z,94199.00
2023-04-25T10:36:37.176Z,94203.00
2023-04-25T10:37:38.873Z,94196.00
2023-04-25T10:38:37.182Z,94198.00
2023-04-25T10:39:37.653Z,94194.00
2023-04-25T10:40:37.135Z,94192.00
2023-04-25T10:41:37.136Z,94194.00
2023-04-25T10:42:37.132Z,94198.00
2023-04-25T10:43:37.135Z,94196.00
2023-04-25T10:44:37.284Z,94190.00
2023-04-25T10:45:37.107Z,94192.00
2023-04-25T10:46:37.719Z,94192.00
2023-04-25T10:47:37.101Z,94194.00
2023-04-25T10:48:37.098Z,94192.00
2023-04-25T10:49:37.153Z,94194.00
2023-04-25T10:50:37.076Z,94194.00
2023-04-25T10:51:54.457Z,94196.00
2023-04-25T10:52:38.029Z,94192.00
2023-04-25T10:53:37.069Z,94198.00
2023-04-25T10:54:37.155Z,94198.00
2023-04-25T10:55:38.062Z,94201.00
2023-04-25T10:56:37.021Z,94199.00
2023-04-25T10:57:37.042Z,94203.00
2023-04-25T10:58:37.024Z,94205.00
2023-04-25T10:59:37.146Z,94205.00
2023-04-25T11:00:53.206Z,94211.00
2023-04-25T11:01:38.052Z,94207.00
2023-04-25T11:02:37.136Z,94209.00
2023-04-25T11:03:37.146Z,94207.00
2023-04-25T11:04:37.527Z,94203.00
2023-04-25T11:05:50.966Z,94203.00
2023-04-25T11:06:37.968Z,94203.00
2023-04-25T11:07:36.983Z,94203.00
2023-04-25T11:08:36.984Z,94199.00
2023-04-25T11:09:37.215Z,94199.00
2023-04-25T11:10:36.957Z,94196.00
2023-04-25T11:11:36.944Z,94196.00
2023-04-25T11:12:36.928Z,94198.00
2023-04-25T11:13:36.906Z,94196.00
2023-04-25T11:14:37.161Z,94192.00
2023-04-25T11:15:37.026Z,94190.00
2023-04-25T11:16:37.118Z,94194.00
2023-04-25T11:17:37.244Z,94194.00
2023-04-25T11:18:37.185Z,94192.00
2023-04-25T11:19:37.682Z,94192.00
2023-04-25T11:20:37.375Z,94194.00
2023-04-25T11:21:37.358Z,94198.00
2023-04-25T11:22:37.437Z,94196.00
2023-04-25T11:23:37.475Z,94196.00
2023-04-25T11:24:37.703Z,94198.00
2023-04-25T11:25:38.780Z,94194.00
2023-04-25T11:26:37.596Z,94194.00
2023-04-25T11:27:37.658Z,94192.00
2023-04-25T11:28:37.682Z,94194.00
2023-04-25T11:29:38.155Z,94196.00
2023-04-25T11:30:37.775Z,94201.00
2023-04-25T11:31:37.778Z,94203.00
2023-04-25T11:32:38.198Z,94205.00
2023-04-25T11:33:37.869Z,94207.00
2023-04-25T11:34:38.217Z,94213.00
2023-04-25T11:35:37.896Z,94215.00
2023-04-25T11:36:37.913Z,94223.00
2023-04-25T11:37:37.941Z,94223.00
2023-04-25T11:38:37.972Z,94227.00
2023-04-25T11:39:38.187Z,94229.00
2023-04-25T11:40:38.021Z,94229.00
2023-04-25T11:41:38.102Z,94231.00
2023-04-25T11:42:38.154Z,94239.00
2023-04-25T11:43:38.188Z,94247.00
2023-04-25T11:44:38.706Z,94251.00
2023-04-25T11:45:38.399Z,94260.00
2023-04-25T11:46:38.514Z,94258.00